createdAt,value
2019-01-23T00:00:49.512Z,0.00
2019-01-23T00:01:49.501Z,0.00
2019-01-23T00:02:49.503Z,0.00
2019-01-23T00:03:49.485Z,0.00
2019-01-23T00:04:49.470Z,0.00
2019-01-23T00:05:49.459Z,0.00
2019-01-23T00:06:49.448Z,0.00
2019-01-23T00:07:49.452Z,0.00
2019-01-23T00:08:49.430Z,0.00
2019-01-23T00:09:49.419Z,0.00
2019-01-23T00:10:49.416Z,0.00
2019-01-23T00:11:49.396Z,0.00
2019-01-23T00:12:49.398Z,0.00
2019-01-23T00:13:49.377Z,0.00
2019-01-23T00:14:49.370Z,0.00
2019-01-23T00:15:49.355Z,0.00
2019-01-23T00:16:49.348Z,0.00
2019-01-23T00:17:49.346Z,0.00
2019-01-23T00:18:49.324Z,0.00
2019-01-23T00:19:49.314Z,0.00
2019-01-23T00:20:49.303Z,0.00
2019-01-23T00:21:49.307Z,0.00
2019-01-23T00:22:49.295Z,0.00
2019-01-23T00:23:49.272Z,0.00
2019-01-23T00:24:49.263Z,0.00
2019-01-23T00:25:49.251Z,0.00
2019-01-23T00:26:49.241Z,0.00
2019-01-23T00:27:49.246Z,0.00
2019-01-23T00:28:49.219Z,0.00
2019-01-23T00:29:49.212Z,0.00
2019-01-23T00:30:49.198Z,0.00
2019-01-23T00:31:49.190Z,0.00
2019-01-23T00:32:49.196Z,0.00
2019-01-23T00:33:49.176Z,0.00
2019-01-23T00:34:49.157Z,0.00
2019-01-23T00:35:49.148Z,0.00
2019-01-23T00:36:49.137Z,0.00
2019-01-23T00:37:49.147Z,0.00
2019-01-23T00:38:49.121Z,0.00
2019-01-23T00:39:49.108Z,0.00
2019-01-23T00:40:49.097Z,0.00
2019-01-23T00:41:49.093Z,0.00
2019-01-23T00:42:49.091Z,0.00
2019-01-23T00:43:49.068Z,0.00
2019-01-23T00:44:49.053Z,0.00
2019-01-23T00:45:49.047Z,0.00
2019-01-23T00:46:49.065Z,0.00
2019-01-23T00:47:49.034Z,0.00
2019-01-23T00:48:49.011Z,0.00
2019-01-23T00:49:49.001Z,0.00
2019-01-23T00:50:48.993Z,0.00
2019-01-23T00:51:48.987Z,0.00
2019-01-23T00:52:48.980Z,0.00
2019-01-23T00:53:48.961Z,0.00
2019-01-23T00:54:48.948Z,0.00
2019-01-23T00:55:48.937Z,0.00
2019-01-23T00:56:48.932Z,0.00
2019-01-23T00:57:48.930Z,0.00
2019-01-23T00:58:49.283Z,0.00
2019-01-23T00:59:48.899Z,0.00
2019-01-23T01:00:48.883Z,0.00
2019-01-23T01:01:48.874Z,0.00
2019-01-23T01:02:48.876Z,0.00
2019-01-23T01:03:48.854Z,0.00
2019-01-23T01:04:48.842Z,0.00
2019-01-23T01:05:48.834Z,0.00
2019-01-23T01:06:48.823Z,0.00
2019-01-23T01:07:48.838Z,0.00
2019-01-23T01:08:48.802Z,0.00
2019-01-23T01:09:48.791Z,0.00
2019-01-23T01:10:48.781Z,0.00
2019-01-23T01:11:48.770Z,0.00
2019-01-23T01:12:48.773Z,0.00
2019-01-23T01:13:48.750Z,0.00
2019-01-23T01:14:48.741Z,0.00
2019-01-23T01:15:48.729Z,0.00
2019-01-23T01:16:48.718Z,0.00
2019-01-23T01:17:48.719Z,0.00
2019-01-23T01:18:48.699Z,0.00
2019-01-23T01:19:48.688Z,0.00
2019-01-23T01:20:48.681Z,0.00
2019-01-23T01:21:48.667Z,0.00
2019-01-23T01:22:48.666Z,0.00
2019-01-23T01:23:48.645Z,0.00
2019-01-23T01:24:48.636Z,0.00
2019-01-23T01:25:48.632Z,0.00
2019-01-23T01:26:48.618Z,0.00
2019-01-23T01:27:48.615Z,0.00
2019-01-23T01:28:48.595Z,0.00
2019-01-23T01:29:48.586Z,0.00
2019-01-23T01:30:48.574Z,0.00
2019-01-23T01:31:48.573Z,0.00
2019-01-23T01:32:48.578Z,0.00
2019-01-23T01:33:48.544Z,0.00
2019-01-23T01:34:48.534Z,0.00
2019-01-23T01:35:48.525Z,0.00
2019-01-23T01:36:48.515Z,0.00
2019-01-23T01:37:48.515Z,0.00
2019-01-23T01:38:58.034Z,0.00
2019-01-23T01:39:57.990Z,0.00
2019-01-23T01:40:48.497Z,0.00
2019-01-23T01:41:56.562Z,0.00
2019-01-23T01:42:48.512Z,0.00
2019-01-23T01:43:48.453Z,0.00
2019-01-23T01:44:48.456Z,0.00
2019-01-23T01:45:48.434Z,0.00
2019-01-23T01:46:48.445Z,0.00
2019-01-23T01:47:48.401Z,0.00
2019-01-23T01:48:48.405Z,0.00
2019-01-23T01:49:48.403Z,0.00
2019-01-23T01:50:48.409Z,0.00
2019-01-23T01:51:48.388Z,0.00
2019-01-23T01:52:48.370Z,0.00
2019-01-23T01:53:48.406Z,0.00
2019-01-23T01:54:48.400Z,0.00
2019-01-23T01:55:48.330Z,0.00
2019-01-23T01:56:48.340Z,0.00
2019-01-23T01:57:48.351Z,0.00
2019-01-23T01:58:48.328Z,0.00
2019-01-23T01:59:48.279Z,0.00
2019-01-23T02:00:48.266Z,0.00
2019-01-23T02:01:48.271Z,0.00
2019-01-23T02:02:48.277Z,0.00
2019-01-23T02:03:48.255Z,0.00
2019-01-23T02:04:48.254Z,0.00
2019-01-23T02:05:48.227Z,0.00
2019-01-23T02:06:48.220Z,0.00
2019-01-23T02:07:48.204Z,0.00
2019-01-23T02:08:48.214Z,0.00
2019-01-23T02:09:48.186Z,0.00
2019-01-23T02:10:48.175Z,0.00
2019-01-23T02:11:48.160Z,0.00
2019-01-23T02:12:48.150Z,0.00
2019-01-23T02:13:48.162Z,0.00
2019-01-23T02:14:48.158Z,0.00
2019-01-23T02:15:48.153Z,0.00
2019-01-23T02:16:48.123Z,0.00
2019-01-23T02:17:48.099Z,0.00
2019-01-23T02:18:48.110Z,0.00
2019-01-23T02:19:48.110Z,0.00
2019-01-23T02:20:48.075Z,0.00
2019-01-23T02:21:48.062Z,0.00
2019-01-23T02:22:48.099Z,0.00
2019-01-23T02:23:48.066Z,0.00
2019-01-23T02:24:48.029Z,0.00
2019-01-23T02:25:48.019Z,0.00
2019-01-23T02:26:48.016Z,0.00
2019-01-23T02:27:48.002Z,0.00
2019-01-23T02:28:48.009Z,0.00
2019-01-23T02:29:47.976Z,0.00
2019-01-23T02:30:47.966Z,0.00
2019-01-23T02:31:47.976Z,0.00
2019-01-23T02:32:47.957Z,0.00
2019-01-23T02:33:47.954Z,0.00
2019-01-23T02:34:47.928Z,0.00
2019-01-23T02:35:47.917Z,0.00
2019-01-23T02:36:47.909Z,0.00
2019-01-23T02:37:47.892Z,0.00
2019-01-23T02:38:47.901Z,0.00
2019-01-23T02:39:47.877Z,0.00
2019-01-23T02:40:47.860Z,0.00
2019-01-23T02:41:47.898Z,0.00
2019-01-23T02:42:47.847Z,0.00
2019-01-23T02:43:47.861Z,0.00
2019-01-23T02:44:47.831Z,0.00
2019-01-23T02:45:47.820Z,0.00
2019-01-23T02:46:47.817Z,0.00
2019-01-23T02:47:47.787Z,0.00
2019-01-23T02:48:47.842Z,0.00
2019-01-23T02:49:47.791Z,0.00
2019-01-23T02:50:47.795Z,0.00
2019-01-23T02:51:47.756Z,0.00
2019-01-23T02:52:47.735Z,0.00
2019-01-23T02:53:47.769Z,0.00
2019-01-23T02:54:47.719Z,0.00
2019-01-23T02:55:47.718Z,0.00
2019-01-23T02:56:47.695Z,0.00
2019-01-23T02:57:47.688Z,0.00
2019-01-23T02:58:47.695Z,0.00
2019-01-23T02:59:47.673Z,0.00
2019-01-23T03:00:47.732Z,0.00
2019-01-23T03:01:47.655Z,0.00
2019-01-23T03:02:47.640Z,0.00
2019-01-23T03:03:47.651Z,0.00
2019-01-23T03:04:47.625Z,0.00
2019-01-23T03:05:47.643Z,0.00
2019-01-23T03:06:47.592Z,0.00
2019-01-23T03:07:47.623Z,0.00
2019-01-23T03:08:47.673Z,0.00
2019-01-23T03:09:47.566Z,0.00
2019-01-23T03:10:47.552Z,0.00
2019-01-23T03:11:47.554Z,0.00
2019-01-23T03:12:47.546Z,0.00
2019-01-23T03:13:47.535Z,0.00
2019-01-23T03:14:47.528Z,0.00
2019-01-23T03:15:47.510Z,0.00
2019-01-23T03:16:47.514Z,0.00
2019-01-23T03:17:47.504Z,0.00
2019-01-23T03:18:47.487Z,0.00
2019-01-23T03:19:47.454Z,0.00
2019-01-23T03:20:47.453Z,0.00
2019-01-23T03:21:47.445Z,0.00
2019-01-23T03:22:47.425Z,0.00
2019-01-23T03:23:47.443Z,0.00
2019-01-23T03:24:47.450Z,0.00
2019-01-23T03:25:47.469Z,0.00
2019-01-23T03:26:47.382Z,0.00
2019-01-23T03:27:47.378Z,0.00
2019-01-23T03:28:47.383Z,0.00
2019-01-23T03:29:47.396Z,0.00
2019-01-23T03:30:47.379Z,0.00
2019-01-23T03:31:47.412Z,0.00
2019-01-23T03:32:47.337Z,0.00
2019-01-23T03:33:47.331Z,0.00
2019-01-23T03:34:47.319Z,0.00
2019-01-23T03:35:47.294Z,0.00
2019-01-23T03:36:47.291Z,0.00
2019-01-23T03:37:47.270Z,0.00
2019-01-23T03:38:47.278Z,0.00
2019-01-23T03:39:47.291Z,0.00
2019-01-23T03:40:47.258Z,0.00
2019-01-23T03:41:47.263Z,0.00
2019-01-23T03:42:47.231Z,0.00
2019-01-23T03:43:47.268Z,0.00
2019-01-23T03:44:47.199Z,0.00
2019-01-23T03:45:47.197Z,0.00
2019-01-23T03:46:47.214Z,0.00
2019-01-23T03:47:47.206Z,0.00
2019-01-23T03:48:47.171Z,0.00
2019-01-23T03:49:47.157Z,0.00
2019-01-23T03:50:47.187Z,0.00
2019-01-23T03:51:47.235Z,0.00
2019-01-23T03:52:47.121Z,0.00
2019-01-23T03:53:47.160Z,0.00
2019-01-23T03:54:47.115Z,0.00
2019-01-23T03:55:47.083Z,0.00
2019-01-23T03:56:47.080Z,0.00
2019-01-23T03:57:47.081Z,0.00
2019-01-23T03:58:47.076Z,0.00
2019-01-23T03:59:47.056Z,0.00
2019-01-23T04:00:47.035Z,0.00
2019-01-23T04:01:47.025Z,0.00
2019-01-23T04:02:47.024Z,0.00
2019-01-23T04:03:47.027Z,0.00
2019-01-23T04:04:47.013Z,0.00
2019-01-23T04:05:46.992Z,0.00
2019-01-23T04:06:47.045Z,0.00
2019-01-23T04:07:46.960Z,0.00
2019-01-23T04:08:46.968Z,0.00
2019-01-23T04:09:46.952Z,0.00
2019-01-23T04:10:46.958Z,0.00
2019-01-23T04:11:46.919Z,0.00
2019-01-23T04:12:46.910Z,0.00
2019-01-23T04:13:46.915Z,0.00
2019-01-23T04:14:46.888Z,0.00
2019-01-23T04:15:46.886Z,0.00
2019-01-23T04:16:46.912Z,0.00
2019-01-23T04:17:46.862Z,0.00
2019-01-23T04:18:46.860Z,0.00
2019-01-23T04:19:46.836Z,0.00
2019-01-23T04:20:46.830Z,0.00
2019-01-23T04:21:46.834Z,0.00
2019-01-23T04:22:46.860Z,0.00
2019-01-23T04:23:46.826Z,0.00
2019-01-23T04:24:46.786Z,0.00
2019-01-23T04:25:46.775Z,0.00
2019-01-23T04:26:46.767Z,0.00
2019-01-23T04:27:46.771Z,0.00
2019-01-23T04:28:46.752Z,0.00
2019-01-23T04:29:46.746Z,0.00
2019-01-23T04:30:46.718Z,0.00
2019-01-23T04:31:46.717Z,0.00
2019-01-23T04:32:46.703Z,0.00
2019-01-23T04:33:46.701Z,0.00
2019-01-23T04:34:46.754Z,0.00
2019-01-23T04:35:46.674Z,0.00
2019-01-23T04:36:46.678Z,0.00
2019-01-23T04:37:46.646Z,0.00
2019-01-23T04:38:46.645Z,0.00
2019-01-23T04:39:46.651Z,0.00
2019-01-23T04:40:46.671Z,0.00
2019-01-23T04:41:46.623Z,0.00
2019-01-23T04:42:46.607Z,0.00
2019-01-23T04:43:46.592Z,0.00
2019-01-23T04:44:46.585Z,0.00
2019-01-23T04:45:46.578Z,0.00
2019-01-23T04:46:46.555Z,0.00
2019-01-23T04:47:46.557Z,0.00
2019-01-23T04:48:46.534Z,0.00
2019-01-23T04:49:46.554Z,0.00
2019-01-23T04:50:46.522Z,0.00
2019-01-23T04:51:46.513Z,0.00
2019-01-23T04:52:46.491Z,0.00
2019-01-23T04:53:46.513Z,0.00
2019-01-23T04:54:46.482Z,0.00
2019-01-23T04:55:46.519Z,0.00
2019-01-23T04:56:46.459Z,0.00
2019-01-23T04:57:46.457Z,0.00
2019-01-23T04:58:46.431Z,0.00
2019-01-23T04:59:46.883Z,0.00
2019-01-23T05:00:46.420Z,0.00
2019-01-23T05:01:46.401Z,0.00
2019-01-23T05:02:46.405Z,0.00
2019-01-23T05:03:46.381Z,0.00
2019-01-23T05:04:46.400Z,0.00
2019-01-23T05:05:46.374Z,0.00
2019-01-23T05:06:46.345Z,0.00
2019-01-23T05:07:46.340Z,0.00
2019-01-23T05:08:46.338Z,0.00
2019-01-23T05:09:46.340Z,0.00
2019-01-23T05:10:46.308Z,0.00
2019-01-23T05:11:46.295Z,0.00
2019-01-23T05:12:46.289Z,0.00
2019-01-23T05:13:46.285Z,0.00
2019-01-23T05:14:46.287Z,0.00
2019-01-23T05:15:46.299Z,0.00
2019-01-23T05:16:46.245Z,0.00
2019-01-23T05:17:46.236Z,0.00
2019-01-23T05:18:46.238Z,0.00
2019-01-23T05:19:46.228Z,0.00
2019-01-23T05:20:46.210Z,0.00
2019-01-23T05:21:46.194Z,0.00
2019-01-23T05:22:46.182Z,0.00
2019-01-23T05:23:46.173Z,0.00
2019-01-23T05:24:46.175Z,0.00
2019-01-23T05:25:46.151Z,0.00
2019-01-23T05:26:46.161Z,0.00
2019-01-23T05:27:46.132Z,0.00
2019-01-23T05:28:46.123Z,0.00
2019-01-23T05:29:46.117Z,0.00
2019-01-23T05:30:46.104Z,0.00
2019-01-23T05:31:46.088Z,0.00
2019-01-23T05:32:46.079Z,0.00
2019-01-23T05:33:46.075Z,0.00
2019-01-23T05:34:46.080Z,0.00
2019-01-23T05:35:46.101Z,0.00
2019-01-23T05:36:46.077Z,0.00
2019-01-23T05:37:46.095Z,0.00
2019-01-23T05:38:46.018Z,0.00
2019-01-23T05:39:46.120Z,0.00
2019-01-23T05:40:45.989Z,0.00
2019-01-23T05:41:45.990Z,0.00
2019-01-23T05:42:45.994Z,0.00
2019-01-23T05:43:45.974Z,0.00
2019-01-23T05:44:46.057Z,0.00
2019-01-23T05:45:45.956Z,0.00
2019-01-23T05:46:46.008Z,0.00
2019-01-23T05:47:45.922Z,0.00
2019-01-23T05:48:45.919Z,0.00
2019-01-23T05:49:45.937Z,0.00
2019-01-23T05:50:45.906Z,0.00
2019-01-23T05:51:45.918Z,0.00
2019-01-23T05:52:45.869Z,0.00
2019-01-23T05:53:45.856Z,0.00
2019-01-23T05:54:45.858Z,0.00
2019-01-23T05:55:45.867Z,0.00
2019-01-23T05:56:45.827Z,0.00
2019-01-23T05:57:46.474Z,0.00
2019-01-23T05:58:45.803Z,0.00
2019-01-23T05:59:45.881Z,0.00
2019-01-23T06:00:45.802Z,0.00
2019-01-23T06:01:45.788Z,0.00
2019-01-23T06:02:45.785Z,0.00
2019-01-23T06:03:45.758Z,0.00
2019-01-23T06:04:45.741Z,0.00
2019-01-23T06:05:45.761Z,0.00
2019-01-23T06:06:45.727Z,0.00
2019-01-23T06:07:47.695Z,0.00
2019-01-23T06:08:45.701Z,0.00
2019-01-23T06:09:45.698Z,0.00
2019-01-23T06:10:45.706Z,0.00
2019-01-23T06:11:45.676Z,0.00
2019-01-23T06:12:45.705Z,0.00
2019-01-23T06:13:45.651Z,0.00
2019-01-23T06:14:45.641Z,0.00
2019-01-23T06:15:45.647Z,0.00
2019-01-23T06:16:45.621Z,0.00
2019-01-23T06:17:45.625Z,0.00
2019-01-23T06:18:45.602Z,0.00
2019-01-23T06:19:45.594Z,0.00
2019-01-23T06:20:45.591Z,0.00
2019-01-23T06:21:45.576Z,0.00
2019-01-23T06:22:45.567Z,0.00
2019-01-23T06:23:45.615Z,0.00
2019-01-23T06:24:45.577Z,0.00
2019-01-23T06:25:45.540Z,0.00
2019-01-23T06:26:45.518Z,0.00
2019-01-23T06:27:45.536Z,0.00
2019-01-23T06:28:45.501Z,0.00
2019-01-23T06:29:45.489Z,0.00
2019-01-23T06:30:45.499Z,0.00
2019-01-23T06:31:45.463Z,4.00
2019-01-23T06:32:45.459Z,0.00
2019-01-23T06:33:45.515Z,0.00
2019-01-23T06:34:45.433Z,0.00
2019-01-23T06:35:45.480Z,4.00
2019-01-23T06:36:45.412Z,4.00
2019-01-23T06:37:45.402Z,0.00
2019-01-23T06:38:45.399Z,4.00
2019-01-23T06:39:45.431Z,4.00
2019-01-23T06:40:45.386Z,4.00
2019-01-23T06:41:45.373Z,4.00
2019-01-23T06:42:45.349Z,4.00
2019-01-23T06:43:45.341Z,4.00
2019-01-23T06:44:45.340Z,8.00
2019-01-23T06:45:45.347Z,8.00
2019-01-23T06:46:45.310Z,8.00
2019-01-23T06:47:45.293Z,8.00
2019-01-23T06:48:45.289Z,12.00
2019-01-23T06:49:45.294Z,16.00
2019-01-23T06:50:45.285Z,16.00
2019-01-23T06:51:45.295Z,20.00
2019-01-23T06:52:45.246Z,20.00
2019-01-23T06:53:45.255Z,24.00
2019-01-23T06:54:45.226Z,24.00
2019-01-23T06:55:45.228Z,28.00
2019-01-23T06:56:45.207Z,32.00
2019-01-23T06:57:45.211Z,32.00
2019-01-23T06:58:45.186Z,40.00
2019-01-23T06:59:45.170Z,40.00
2019-01-23T07:00:45.175Z,44.00
2019-01-23T07:01:45.164Z,44.00
2019-01-23T07:02:45.155Z,44.00
2019-01-23T07:03:45.142Z,52.00
2019-01-23T07:04:45.130Z,52.00
2019-01-23T07:05:45.129Z,56.00
2019-01-23T07:06:45.104Z,60.00
2019-01-23T07:07:45.092Z,60.00
2019-01-23T07:08:45.085Z,64.00
2019-01-23T07:09:45.096Z,68.00
2019-01-23T07:10:45.097Z,72.00
2019-01-23T07:11:45.061Z,72.00
2019-01-23T07:12:45.042Z,76.00
2019-01-23T07:13:45.030Z,80.00
2019-01-23T07:14:45.083Z,84.00
2019-01-23T07:15:45.025Z,92.00
2019-01-23T07:16:44.997Z,96.00
2019-01-23T07:17:44.985Z,92.00
2019-01-23T07:18:45.941Z,96.00
2019-01-23T07:19:44.974Z,96.00
2019-01-23T07:20:44.976Z,100.00
2019-01-23T07:21:44.966Z,108.00
2019-01-23T07:22:44.995Z,108.00
2019-01-23T07:23:44.931Z,108.00
2019-01-23T07:24:44.915Z,116.00
2019-01-23T07:25:44.928Z,128.00
2019-01-23T07:26:44.910Z,140.00
2019-01-23T07:27:44.903Z,148.00
2019-01-23T07:28:49.121Z,148.00
2019-01-23T07:29:44.866Z,160.00
2019-01-23T07:30:44.876Z,180.00
2019-01-23T07:31:44.845Z,184.00
2019-01-23T07:32:44.845Z,208.00
2019-01-23T07:33:44.833Z,256.00
2019-01-23T07:34:44.811Z,240.00
2019-01-23T07:35:44.857Z,276.00
2019-01-23T07:36:44.791Z,300.00
2019-01-23T07:37:44.798Z,320.00
2019-01-23T07:38:44.779Z,296.00
2019-01-23T07:39:44.785Z,304.00
2019-01-23T07:40:44.807Z,320.00
2019-01-23T07:41:44.736Z,316.00
2019-01-23T07:42:54.016Z,312.00
2019-01-23T07:43:44.710Z,392.00
2019-01-23T07:44:44.699Z,408.00
2019-01-23T07:45:44.736Z,428.00
2019-01-23T07:46:44.682Z,448.00
2019-01-23T07:47:44.673Z,456.00
2019-01-23T07:48:44.660Z,452.00
2019-01-23T07:49:44.647Z,564.00
2019-01-23T07:50:44.641Z,536.00
2019-01-23T07:51:44.649Z,508.00
2019-01-23T07:52:44.618Z,480.00
2019-01-23T07:53:44.608Z,500.00
2019-01-23T07:54:44.606Z,496.00
2019-01-23T07:55:44.587Z,572.00
2019-01-23T07:56:44.586Z,724.00
2019-01-23T07:57:44.567Z,608.00
2019-01-23T07:58:44.557Z,616.00
2019-01-23T07:59:44.543Z,576.00
2019-01-23T08:00:44.535Z,584.00
2019-01-23T08:01:44.536Z,564.00
2019-01-23T08:02:44.530Z,624.00
2019-01-23T08:03:44.503Z,696.00
2019-01-23T08:04:44.492Z,748.00
2019-01-23T08:05:44.482Z,636.00
2019-01-23T08:06:44.486Z,608.00
2019-01-23T08:07:44.464Z,672.00
2019-01-23T08:08:44.453Z,1008.00
2019-01-23T08:09:44.440Z,1116.00
2019-01-23T08:10:44.430Z,964.00
2019-01-23T08:11:44.429Z,920.00
2019-01-23T08:12:44.408Z,888.00
2019-01-23T08:13:44.424Z,844.00
2019-01-23T08:14:44.396Z,876.00
2019-01-23T08:15:44.379Z,884.00
2019-01-23T08:16:44.380Z,1160.00
2019-01-23T08:17:44.366Z,1168.00
2019-01-23T08:18:44.350Z,880.00
2019-01-23T08:19:44.339Z,740.00
2019-01-23T08:20:44.327Z,716.00
2019-01-23T08:21:44.333Z,796.00
2019-01-23T08:22:44.306Z,940.00
2019-01-23T08:23:44.297Z,880.00
2019-01-23T08:24:44.286Z,1020.00
2019-01-23T08:25:44.279Z,892.00
2019-01-23T08:26:44.297Z,788.00
2019-01-23T08:27:44.256Z,916.00
2019-01-23T08:28:44.245Z,1080.00
2019-01-23T08:29:44.236Z,1284.00
2019-01-23T08:30:44.224Z,1436.00
2019-01-23T08:31:44.225Z,1528.00
2019-01-23T08:32:44.202Z,1516.00
2019-01-23T08:33:44.192Z,1420.00
2019-01-23T08:34:44.182Z,1876.00
2019-01-23T08:35:44.171Z,1856.00
2019-01-23T08:36:44.176Z,1704.00
2019-01-23T08:37:44.150Z,2340.00
2019-01-23T08:38:44.138Z,2256.00
2019-01-23T08:39:44.131Z,2656.00
2019-01-23T08:40:44.119Z,2224.00
2019-01-23T08:41:44.119Z,2720.00
2019-01-23T08:42:44.102Z,2468.00
2019-01-23T08:43:44.087Z,2448.00
2019-01-23T08:44:44.077Z,2800.00
2019-01-23T08:45:44.072Z,2400.00
2019-01-23T08:46:44.069Z,2308.00
2019-01-23T08:47:44.047Z,2772.00
2019-01-23T08:48:44.035Z,3988.00
2019-01-23T08:49:45.590Z,3868.00
2019-01-23T08:50:44.020Z,3284.00
2019-01-23T08:51:44.016Z,3108.00
2019-01-23T08:52:43.991Z,2880.00
2019-01-23T08:53:43.980Z,3300.00
2019-01-23T08:54:43.971Z,3072.00
2019-01-23T08:55:43.963Z,2808.00
2019-01-23T08:56:43.962Z,2840.00
2019-01-23T08:57:43.946Z,3260.00
2019-01-23T08:58:43.932Z,2804.00
2019-01-23T08:59:43.917Z,3400.00
2019-01-23T09:00:45.921Z,3848.00
2019-01-23T09:01:43.909Z,3848.00
2019-01-23T09:02:43.888Z,3992.00
2019-01-23T09:03:43.883Z,4476.00
2019-01-23T09:04:43.867Z,4084.00
2019-01-23T09:05:43.858Z,3936.00
2019-01-23T09:06:43.859Z,3928.00
2019-01-23T09:07:43.835Z,4080.00
2019-01-23T09:08:43.826Z,4180.00
2019-01-23T09:09:43.816Z,4212.00
2019-01-23T09:10:53.056Z,4416.00
2019-01-23T09:11:43.808Z,3788.00
2019-01-23T09:12:53.083Z,3392.00
2019-01-23T09:13:43.771Z,2944.00
2019-01-23T09:14:43.818Z,2856.00
2019-01-23T09:15:43.751Z,2596.00
2019-01-23T09:16:43.762Z,2112.00
2019-01-23T09:17:43.730Z,1892.00
2019-01-23T09:18:43.721Z,1388.00
2019-01-23T09:19:53.096Z,1756.00
2019-01-23T09:20:43.697Z,1520.00
2019-01-23T09:21:43.703Z,1372.00
2019-01-23T09:22:43.677Z,1552.00
2019-01-23T09:23:43.667Z,1844.00
2019-01-23T09:24:43.661Z,1548.00
2019-01-23T09:25:49.524Z,1568.00
2019-01-23T09:26:44.647Z,1836.00
2019-01-23T09:27:43.626Z,2064.00
2019-01-23T09:28:43.615Z,2404.00
2019-01-23T09:29:43.607Z,2248.00
2019-01-23T09:30:43.609Z,2880.00
2019-01-23T09:31:43.597Z,3628.00
2019-01-23T09:32:43.573Z,3736.00
2019-01-23T09:33:43.562Z,3896.00
2019-01-23T09:34:43.556Z,3968.00
2019-01-23T09:35:43.550Z,3876.00
2019-01-23T09:36:43.544Z,4028.00
2019-01-23T09:37:43.521Z,3212.00
2019-01-23T09:38:43.513Z,2868.00
2019-01-23T09:39:43.503Z,2808.00
2019-01-23T09:40:43.490Z,2272.00
2019-01-23T09:41:43.496Z,2456.00
2019-01-23T09:42:43.468Z,2160.00
2019-01-23T09:43:43.458Z,2192.00
2019-01-23T09:44:43.448Z,2332.00
2019-01-23T09:45:43.440Z,1920.00
2019-01-23T09:46:43.438Z,2208.00
2019-01-23T09:47:43.417Z,2628.00
2019-01-23T09:48:43.409Z,2104.00
2019-01-23T09:49:43.396Z,1836.00
2019-01-23T09:50:43.385Z,1796.00
2019-01-23T09:51:43.411Z,1768.00
2019-01-23T09:52:43.365Z,1772.00
2019-01-23T09:53:43.358Z,1968.00
2019-01-23T09:54:43.343Z,2312.00
2019-01-23T09:55:43.331Z,2532.00
2019-01-23T09:56:43.325Z,2980.00
2019-01-23T09:57:43.324Z,3840.00
2019-01-23T09:58:43.303Z,4772.00
2019-01-23T09:59:43.305Z,5616.00
2019-01-23T10:00:43.280Z,6648.00
2019-01-23T10:01:43.268Z,5776.00
2019-01-23T10:02:43.270Z,7048.00
2019-01-23T10:03:43.247Z,8024.00
2019-01-23T10:04:43.246Z,8028.00
2019-01-23T10:05:43.239Z,7004.00
2019-01-23T10:06:43.218Z,6504.00
2019-01-23T10:07:43.237Z,5292.00
2019-01-23T10:08:43.198Z,5192.00
2019-01-23T10:09:43.187Z,4980.00
2019-01-23T10:10:43.176Z,4648.00
2019-01-23T10:11:43.164Z,4176.00
2019-01-23T10:12:43.163Z,5676.00
2019-01-23T10:13:43.144Z,6120.00
2019-01-23T10:14:43.140Z,6336.00
2019-01-23T10:15:43.124Z,5352.00
2019-01-23T10:16:43.117Z,4764.00
2019-01-23T10:17:43.133Z,6408.00
2019-01-23T10:18:43.091Z,5864.00
2019-01-23T10:19:43.081Z,6716.00
2019-01-23T10:20:43.072Z,5968.00
2019-01-23T10:21:43.060Z,6036.00
2019-01-23T10:22:43.062Z,6780.00
2019-01-23T10:23:43.049Z,5716.00
2019-01-23T10:24:43.026Z,4788.00
2019-01-23T10:25:43.041Z,5200.00
2019-01-23T10:26:43.005Z,3704.00
2019-01-23T10:27:43.001Z,3740.00
2019-01-23T10:28:42.995Z,4320.00
2019-01-23T10:29:42.972Z,3424.00
2019-01-23T10:30:42.961Z,3380.00
2019-01-23T10:31:42.959Z,3296.00
2019-01-23T10:32:42.940Z,3792.00
2019-01-23T10:33:42.943Z,3692.00
2019-01-23T10:34:42.919Z,4632.00
2019-01-23T10:35:42.911Z,7428.00
2019-01-23T10:36:42.899Z,6776.00
2019-01-23T10:37:42.888Z,5096.00
2019-01-23T10:38:42.888Z,6384.00
2019-01-23T10:39:42.882Z,5020.00
2019-01-23T10:40:42.861Z,4512.00
2019-01-23T10:41:42.847Z,5388.00
2019-01-23T10:42:42.865Z,6284.00
2019-01-23T10:43:42.835Z,5492.00
2019-01-23T10:44:42.815Z,4776.00
2019-01-23T10:45:42.805Z,5808.00
2019-01-23T10:46:42.794Z,7104.00
2019-01-23T10:47:42.783Z,7964.00
2019-01-23T10:48:42.802Z,6928.00
2019-01-23T10:49:42.761Z,6884.00
2019-01-23T10:50:42.756Z,6936.00
2019-01-23T10:51:42.740Z,6708.00
2019-01-23T10:52:42.731Z,6680.00
2019-01-23T10:53:42.728Z,7432.00
2019-01-23T10:54:42.707Z,6528.00
2019-01-23T10:55:42.698Z,5452.00
2019-01-23T10:56:42.686Z,5976.00
2019-01-23T10:57:42.680Z,5952.00
2019-01-23T10:58:42.675Z,4940.00
2019-01-23T10:59:42.658Z,4892.00
2019-01-23T11:00:42.669Z,5948.00
2019-01-23T11:01:42.634Z,5296.00
2019-01-23T11:02:42.631Z,5408.00
2019-01-23T11:03:42.648Z,5008.00
2019-01-23T11:04:42.639Z,4912.00
2019-01-23T11:05:42.589Z,5812.00
2019-01-23T11:06:42.579Z,5384.00
2019-01-23T11:07:42.571Z,4976.00
2019-01-23T11:08:42.564Z,4368.00
2019-01-23T11:09:42.562Z,4456.00
2019-01-23T11:10:42.547Z,4124.00
2019-01-23T11:11:42.526Z,4652.00
2019-01-23T11:12:42.515Z,3220.00
2019-01-23T11:13:42.511Z,3464.00
2019-01-23T11:14:42.526Z,4088.00
2019-01-23T11:15:42.485Z,4588.00
2019-01-23T11:16:42.472Z,4632.00
2019-01-23T11:17:42.463Z,6244.00
2019-01-23T11:18:42.453Z,5988.00
2019-01-23T11:19:42.453Z,4952.00
2019-01-23T11:20:42.428Z,5124.00
2019-01-23T11:21:42.419Z,4892.00
2019-01-23T11:22:42.407Z,4648.00
2019-01-23T11:23:42.403Z,5320.00
2019-01-23T11:24:42.421Z,5772.00
2019-01-23T11:25:42.379Z,6428.00
2019-01-23T11:26:42.366Z,6940.00
2019-01-23T11:27:42.360Z,7300.00
2019-01-23T11:28:42.346Z,6744.00
2019-01-23T11:29:42.347Z,7368.00
2019-01-23T11:30:42.328Z,7668.00
2019-01-23T11:31:42.311Z,6528.00
2019-01-23T11:32:42.302Z,10440.00
2019-01-23T11:33:42.290Z,11096.00
2019-01-23T11:34:42.295Z,8752.00
2019-01-23T11:35:42.271Z,8608.00
2019-01-23T11:36:42.259Z,7292.00
2019-01-23T11:37:42.249Z,5916.00
2019-01-23T11:38:42.238Z,8756.00
2019-01-23T11:39:42.237Z,7652.00
2019-01-23T11:40:42.215Z,5128.00
2019-01-23T11:41:42.207Z,3828.00
2019-01-23T11:42:42.198Z,4524.00
2019-01-23T11:43:42.187Z,4624.00
2019-01-23T11:44:42.184Z,4560.00
2019-01-23T11:45:42.164Z,4796.00
2019-01-23T11:46:42.153Z,4800.00
2019-01-23T11:47:42.142Z,4384.00
2019-01-23T11:48:42.142Z,4096.00
2019-01-23T11:49:42.131Z,3720.00
2019-01-23T11:50:42.114Z,4316.00
2019-01-23T11:51:42.099Z,4096.00
2019-01-23T11:52:42.091Z,4164.00
2019-01-23T11:53:42.085Z,3104.00
2019-01-23T11:54:42.085Z,2784.00
2019-01-23T11:55:42.055Z,3484.00
2019-01-23T11:56:42.046Z,2976.00
2019-01-23T11:57:42.036Z,2972.00
2019-01-23T11:58:42.023Z,2812.00
2019-01-23T11:59:42.024Z,2756.00
2019-01-23T12:00:42.006Z,2564.00
2019-01-23T12:01:41.993Z,2052.00
2019-01-23T12:02:41.984Z,2284.00
2019-01-23T12:03:41.973Z,2044.00
2019-01-23T12:04:41.976Z,1624.00
2019-01-23T12:05:41.955Z,1688.00
2019-01-23T12:06:41.943Z,1744.00
2019-01-23T12:07:41.931Z,1980.00
2019-01-23T12:08:41.920Z,1892.00
2019-01-23T12:09:41.922Z,2116.00
2019-01-23T12:10:41.902Z,2920.00
2019-01-23T12:11:41.902Z,2520.00
2019-01-23T12:12:41.878Z,2844.00
2019-01-23T12:13:41.867Z,3464.00
2019-01-23T12:14:41.872Z,4612.00
2019-01-23T12:15:41.847Z,4236.00
2019-01-23T12:16:41.838Z,3384.00
2019-01-23T12:17:41.832Z,2764.00
2019-01-23T12:18:41.814Z,3332.00
2019-01-23T12:19:41.816Z,3616.00
2019-01-23T12:20:41.796Z,3996.00
2019-01-23T12:21:41.787Z,3336.00
2019-01-23T12:22:41.779Z,3460.00
2019-01-23T12:23:41.762Z,2684.00
2019-01-23T12:24:42.057Z,2836.00
2019-01-23T12:25:41.741Z,2936.00
2019-01-23T12:26:41.741Z,2588.00
2019-01-23T12:27:41.723Z,2808.00
2019-01-23T12:28:41.720Z,2188.00
2019-01-23T12:29:41.699Z,2248.00
2019-01-23T12:30:41.743Z,2176.00
2019-01-23T12:31:41.680Z,2720.00
2019-01-23T12:32:41.669Z,2540.00
2019-01-23T12:33:41.659Z,2804.00
2019-01-23T12:34:41.650Z,2776.00
2019-01-23T12:35:41.657Z,2656.00
2019-01-23T12:36:41.625Z,2548.00
2019-01-23T12:37:41.616Z,1940.00
2019-01-23T12:38:41.606Z,1824.00
2019-01-23T12:39:41.595Z,2108.00
2019-01-23T12:40:41.602Z,1924.00
2019-01-23T12:41:41.574Z,2064.00
2019-01-23T12:42:41.565Z,1864.00
2019-01-23T12:43:41.554Z,1920.00
2019-01-23T12:44:41.547Z,1756.00
2019-01-23T12:45:41.544Z,1592.00
2019-01-23T12:46:41.534Z,1668.00